Giove Jet — IJNX — position and weather

sailwx.info

Track history (hours):
 
Tides and Currents Weather Stations Pressure Air Temp Water Temp Dewpoint Dewpoint Depression Visibility Wind Speed Wind Dir Waves Ship Positions

Giove Jet

Last reported at 2014-Jul-28 08:34 UTC. Time now 2014-Jul-29 08:44 UTC.
Position N 40°45' E 013°56'.

Length 33 m; draft 1.5 m.

Type: Ship. MMSI: 247049500.

Date/timePositionNaut miles runAvg speedWind from/ knotsBaromVisibWave heightAir tempDewpointWater temp
2014-Jul-28 08:34N 40°45' E 013°56'2 0.1
2014-Jul-27 17:34N 40°44' E 013°59'5 5.4
2014-Jul-27 16:34N 40°46' E 014°06'5 4.6
2014-Jul-27 15:34N 40°44' E 014°00'5 4.9
2014-Jul-27 14:33N 40°47' E 014°06'3 2.8
2014-Jul-27 13:31N 40°46' E 014°10'1010.6
2014-Jul-27 12:33N 40°45' E 013°56'12 5.5
2014-Jul-27 10:25N 40°47' E 014°12'1113.1
2014-Jul-27 09:34N 40°45' E 013°57'1110.1
2014-Jul-27 08:27N 40°47' E 014°11'7 7.8
2014-Jul-27 07:34N 40°46' E 014°02'5 1.5
2014-Jul-27 04:33N 40°45' E 013°56'0 0.0
2014-Jul-26 16:12N 40°45' E 013°56'6 3.7
2014-Jul-26 14:34N 40°45' E 014°04'10 9.7
2014-Jul-26 13:33N 40°44' E 013°52'0 0.0
2014-Jul-26 12:32N 40°44' E 013°52'1010.5
2014-Jul-26 11:34N 40°45' E 014°05'6 4.5
2014-Jul-26 10:19N 40°47' E 014°12'1215.5
2014-Jul-26 09:34N 40°45' E 013°57'10 9.1
2014-Jul-26 08:26N 40°47' E 014°10'5 6.0
2014-Jul-26 07:34N 40°45' E 014°03'5 1.8
2014-Jul-26 04:33N 40°45' E 013°56'0 0.0
2014-Jul-25 16:24N 40°45' E 013°56'8 4.1
2014-Jul-25 14:33N 40°46' E 014°06'11 9.0
2014-Jul-25 13:19N 40°44' E 013°52'0 0.0
2014-Jul-25 12:31N 40°44' E 013°52'4 4.6
2014-Jul-25 11:33N 40°46' E 013°57'9 4.2
2014-Jul-25 09:32N 40°47' E 014°08'9 9.7
2014-Jul-25 08:34N 40°46' E 013°56'11 8.0
2014-Jul-25 07:08N 40°47' E 014°11'1119.1
2014-Jul-25 06:33N 40°45' E 013°56'0 0.1
2014-Jul-25 04:33N 40°45' E 013°56'0 0.0
2014-Jul-24 19:10N 40°45' E 013°56'10 1.0
2014-Jul-24 09:33N 40°47' E 014°09'1413.6
2014-Jul-24 08:33N 40°44' E 013°52'15 0.8
2014-Jul-23 13:27N 40°47' E 014°12'1213.3
2014-Jul-23 12:33N 40°45' E 013°56'0 0.0
2014-Jul-23 11:33N 40°45' E 013°56'11 4.4
2014-Jul-23 09:06N 40°47' E 014°10'1119.8
2014-Jul-23 08:33N 40°45' E 013°56'5 4.9
2014-Jul-23 07:34N 40°46' E 014°02'6 5.3
2014-Jul-23 06:26N 40°47' E 014°10'5 5.3
2014-Jul-23 05:33N 40°46' E 014°04'2 0.0
2014-Jul-21 14:34N 40°46' E 014°02'8 8.2
2014-Jul-21 13:33N 40°44' E 013°52'0 0.0
2014-Jul-21 12:33N 40°44' E 013°52'4 4.1
2014-Jul-21 11:34N 40°46' E 013°56'8 4.1
2014-Jul-21 09:34N 40°46' E 014°07'1212.0
2014-Jul-21 08:33N 40°45' E 013°52'2 1.0
2014-Jul-21 06:34N 40°46' E 013°54'2 2.4
2014-Jul-21 05:34N 40°45' E 013°56'0 0.0
2014-Jul-20 19:29N 40°45' E 013°56'1612.9
2014-Jul-20 18:14N 40°50' E 014°16'1421.2
2014-Jul-20 17:34N 40°44' E 013°59'6 5.5
2014-Jul-20 16:33N 40°45' E 014°06'4 3.7
2014-Jul-20 15:34N 40°44' E 014°01'4 4.0
2014-Jul-20 14:33N 40°46' E 014°06'4 4.2
2014-Jul-20 13:29N 40°47' E 014°12'1212.8
2014-Jul-20 12:33N 40°45' E 013°56'1010.3
2014-Jul-20 11:32N 40°47' E 014°10'0 0.4
2014-Jul-20 10:23N 40°46' E 014°10'911.2
2014-Jul-20 09:33N 40°45' E 013°58'10 8.6
2014-Jul-20 08:27N 40°47' E 014°10'5 5.7
2014-Jul-20 07:34N 40°45' E 014°04'6 0.4
2014-Jul-19 16:25N 40°45' E 013°56'5 2.9
2014-Jul-19 14:34N 40°45' E 014°04'9 3.7
2014-Jul-19 12:07N 40°44' E 013°52'1220.7
2014-Jul-19 11:34N 40°46' E 014°07'4 3.8
2014-Jul-19 10:25N 40°47' E 014°12'1113.0
2014-Jul-19 09:34N 40°45' E 013°58'10 9.9
2014-Jul-19 08:30N 40°47' E 014°11'5 5.2
2014-Jul-19 07:34N 40°46' E 014°05'9 3.6
2014-Jul-19 05:08N 40°49' E 014°16'1526.6
2014-Jul-19 04:34N 40°45' E 013°56'0 0.0
2014-Jul-18 16:34N 40°45' E 013°56'6 2.9
2014-Jul-18 14:33N 40°46' E 014°04'9 9.2
2014-Jul-18 13:32N 40°44' E 013°52'0 0.0
2014-Jul-18 12:13N 40°44' E 013°52'811.9
2014-Jul-18 11:34N 40°47' E 014°01'2 1.1
2014-Jul-18 09:33N 40°46' E 014°04'  
Track history (hours):
 
Tides and Currents Weather Stations Pressure Air Temp Water Temp Dewpoint Dewpoint Depression Visibility Wind Speed Wind Dir Waves Ship Positions

Giove Jet

Last reported at 2014-Jul-28 08:34 UTC. Time now 2014-Jul-29 08:44 UTC.
Position N 40°45' E 013°56'.

Length 33 m; draft 1.5 m.

Type: Ship. MMSI: 247049500.

Date/timePositionNaut miles runAvg speedWind from/ knotsBaromVisibWave heightAir tempDewpointWater temp
2014-Jul-28 08:34N 40°45' E 013°56'2 0.1
2014-Jul-27 17:34N 40°44' E 013°59'5 5.4
2014-Jul-27 16:34N 40°46' E 014°06'5 4.6
2014-Jul-27 15:34N 40°44' E 014°00'5 4.9
2014-Jul-27 14:33N 40°47' E 014°06'3 2.8
2014-Jul-27 13:31N 40°46' E 014°10'1010.6
2014-Jul-27 12:33N 40°45' E 013°56'12 5.5
2014-Jul-27 10:25N 40°47' E 014°12'1113.1
2014-Jul-27 09:34N 40°45' E 013°57'1110.1
2014-Jul-27 08:27N 40°47' E 014°11'7 7.8
2014-Jul-27 07:34N 40°46' E 014°02'5 1.5
2014-Jul-27 04:33N 40°45' E 013°56'0 0.0
2014-Jul-26 16:12N 40°45' E 013°56'6 3.7
2014-Jul-26 14:34N 40°45' E 014°04'10 9.7
2014-Jul-26 13:33N 40°44' E 013°52'0 0.0
2014-Jul-26 12:32N 40°44' E 013°52'1010.5
2014-Jul-26 11:34N 40°45' E 014°05'6 4.5
2014-Jul-26 10:19N 40°47' E 014°12'1215.5
2014-Jul-26 09:34N 40°45' E 013°57'10 9.1
2014-Jul-26 08:26N 40°47' E 014°10'5 6.0
2014-Jul-26 07:34N 40°45' E 014°03'5 1.8
2014-Jul-26 04:33N 40°45' E 013°56'0 0.0
2014-Jul-25 16:24N 40°45' E 013°56'8 4.1
2014-Jul-25 14:33N 40°46' E 014°06'11 9.0
2014-Jul-25 13:19N 40°44' E 013°52'0 0.0
2014-Jul-25 12:31N 40°44' E 013°52'4 4.6
2014-Jul-25 11:33N 40°46' E 013°57'9 4.2
2014-Jul-25 09:32N 40°47' E 014°08'9 9.7
2014-Jul-25 08:34N 40°46' E 013°56'11 8.0
2014-Jul-25 07:08N 40°47' E 014°11'1119.1
2014-Jul-25 06:33N 40°45' E 013°56'0 0.1
2014-Jul-25 04:33N 40°45' E 013°56'0 0.0
2014-Jul-24 19:10N 40°45' E 013°56'10 1.0
2014-Jul-24 09:33N 40°47' E 014°09'1413.6
2014-Jul-24 08:33N 40°44' E 013°52'15 0.8
2014-Jul-23 13:27N 40°47' E 014°12'1213.3
2014-Jul-23 12:33N 40°45' E 013°56'0 0.0
2014-Jul-23 11:33N 40°45' E 013°56'11 4.4
2014-Jul-23 09:06N 40°47' E 014°10'1119.8
2014-Jul-23 08:33N 40°45' E 013°56'5 4.9
2014-Jul-23 07:34N 40°46' E 014°02'6 5.3
2014-Jul-23 06:26N 40°47' E 014°10'5 5.3
2014-Jul-23 05:33N 40°46' E 014°04'2 0.0
2014-Jul-21 14:34N 40°46' E 014°02'8 8.2
2014-Jul-21 13:33N 40°44' E 013°52'0 0.0
2014-Jul-21 12:33N 40°44' E 013°52'4 4.1
2014-Jul-21 11:34N 40°46' E 013°56'8 4.1
2014-Jul-21 09:34N 40°46' E 014°07'1212.0
2014-Jul-21 08:33N 40°45' E 013°52'2 1.0
2014-Jul-21 06:34N 40°46' E 013°54'2 2.4
2014-Jul-21 05:34N 40°45' E 013°56'0 0.0
2014-Jul-20 19:29N 40°45' E 013°56'1612.9
2014-Jul-20 18:14N 40°50' E 014°16'1421.2
2014-Jul-20 17:34N 40°44' E 013°59'6 5.5
2014-Jul-20 16:33N 40°45' E 014°06'4 3.7
2014-Jul-20 15:34N 40°44' E 014°01'4 4.0
2014-Jul-20 14:33N 40°46' E 014°06'4 4.2
2014-Jul-20 13:29N 40°47' E 014°12'1212.8
2014-Jul-20 12:33N 40°45' E 013°56'1010.3
2014-Jul-20 11:32N 40°47' E 014°10'0 0.4
2014-Jul-20 10:23N 40°46' E 014°10'911.2
2014-Jul-20 09:33N 40°45' E 013°58'10 8.6
2014-Jul-20 08:27N 40°47' E 014°10'5 5.7
2014-Jul-20 07:34N 40°45' E 014°04'6 0.4
2014-Jul-19 16:25N 40°45' E 013°56'5 2.9
2014-Jul-19 14:34N 40°45' E 014°04'9 3.7
2014-Jul-19 12:07N 40°44' E 013°52'1220.7
2014-Jul-19 11:34N 40°46' E 014°07'4 3.8
2014-Jul-19 10:25N 40°47' E 014°12'1113.0
2014-Jul-19 09:34N 40°45' E 013°58'10 9.9
2014-Jul-19 08:30N 40°47' E 014°11'5 5.2
2014-Jul-19 07:34N 40°46' E 014°05'9 3.6
2014-Jul-19 05:08N 40°49' E 014°16'1526.6
2014-Jul-19 04:34N 40°45' E 013°56'0 0.0
2014-Jul-18 16:34N 40°45' E 013°56'6 2.9
2014-Jul-18 14:33N 40°46' E 014°04'9 9.2
2014-Jul-18 13:32N 40°44' E 013°52'0 0.0
2014-Jul-18 12:13N 40°44' E 013°52'811.9
2014-Jul-18 11:34N 40°47' E 014°01'2 1.1
2014-Jul-18 09:33N 40°46' E 014°04'  

Dump ship's entire track history